Domov               UVHVVR             MKGP            O straneh              
ZDRAVSTVENO VARSTVO RASTLIN
  MREŽA AGROMET. POSTAJ
 ► PROGNOSTIČNA OBVESTILA
AGROMETEOROLOŠKI PODATKI -
ARSO
OBVLADOVANJE TVEGANJ ZARADI
NEUGODNIH VREMENSKIH RAZMER
  ► NARAVNE NESREČE
  ► SUŠA/MOČA
  ► NAMAKANJE
  ► ŽLED (gozdarstvo)
KARTOGRAFSKI PRIKAZI
SPLETNE POVEZAVE
PROJEKTI IN PUBLIKACIJE

AGROMETEOROLOŠKA MREŽA: VREMENSKE POSTAJE IN FENOLOŠKA OPAZOVANJA

Pregled podatkov za lokacijo Litmerk, meteorološka postaja 514779

Pregled senzorjev na lokaciji

ID Ime Zadnja
vrednost
Datum in čas
zadnje
spremembe
(Lokalni čas)
Tip
senzorja
6448 Omočenost lista (1,5 m) (U) 10 U 23.1.2022 17:00 A730WET
6457 Padavine (mm) 0 mm 23.1.2022 17:00 Generic 0.2 mm
6452 Relativna zračna vlaga (2 m) (%RH) 97 %RH 23.1.2022 17:00 50YA
6451 Temperatura (2 m) (°C) -0.1 °C 23.1.2022 17:00 50YA

Pregled podatkov zadnjih 24 ur

Zap.
št.
Datum in čas
(Centralno
evropski čas)
Litmerk
Omočenost
lista
(1,5
m)
Padavine Relativna
zračna
vlaga
(2
m)
Temperatura
(2
m)
1 23.1.2022 17:00 10 0 96.6 -0.1
2 23.1.2022 16:30 9 0 96.5 0.2
3 23.1.2022 16:00 3 0.2 96.5 0.2
4 23.1.2022 15:30 3 0 96.6 0.2
5 23.1.2022 15:00 3 0 96.8 0
6 23.1.2022 14:30 3 0 96.7 -0.1
7 23.1.2022 14:00 3 0 96.5 -0.1
8 23.1.2022 13:30 3 0 96.5 0.2
9 23.1.2022 13:00 7 0 96.7 -0.1
10 23.1.2022 12:30 10 0 96.7 -0.2
11 23.1.2022 12:00 10 0 96.5 -0.5
12 23.1.2022 11:30 10 0 96.1 -0.5
13 23.1.2022 11:00 10 0 95.5 -0.5
14 23.1.2022 10:30 10 0 94.4 -0.7
15 23.1.2022 10:00 10 0 92.2 -0.7
16 23.1.2022 09:30 9 0 89.3 -0.5
17 23.1.2022 09:00 9 0 86.8 -0.2
18 23.1.2022 08:30 4 0 84.7 0.1
19 23.1.2022 08:00 2 0 84 -0.1
20 23.1.2022 07:30 1 0 82.1 0
21 23.1.2022 07:00 1 0 82.2 -0.1
22 23.1.2022 06:30 1 0 82.8 -0.4
23 23.1.2022 06:00 0 0 81.8 -0.2
24 23.1.2022 05:30 0 0 79.9 0.2
25 23.1.2022 05:00 0 0 79.8 0.2
26 23.1.2022 04:30 0 0 80.3 0.2
27 23.1.2022 04:00 0 0 80.7 0.1
28 23.1.2022 03:30 0 0 80.6 -0.1
29 23.1.2022 03:00 0 0 80.5 -0.2
30 23.1.2022 02:30 1 0 80.1 -0.1
31 23.1.2022 02:00 4 0 79.4 -0.1
32 23.1.2022 01:30 5 0 83.4 -0.5
33 23.1.2022 01:00 4 0 83.3 -0.5
34 23.1.2022 00:30 4 0 83.6 -0.5
35 23.1.2022 00:00 3 0 87 -1.1
36 22.1.2022 23:30 3 0 83.5 -0.4
37 22.1.2022 23:00 2 0 86 -0.8
38 22.1.2022 22:30 2 0 83 -0.6
39 22.1.2022 22:00 2 0 87.4 -0.9
40 22.1.2022 21:30 1 0 88.8 -1.2
41 22.1.2022 21:00 1 0 88.2 -1
42 22.1.2022 20:30 1 0 90.4 -1.4
43 22.1.2022 20:00 1 0 90.5 -1.6
44 22.1.2022 19:30 2 0 86.3 -0.8
45 22.1.2022 19:00 2 0 86.1 -0.7
46 22.1.2022 18:30 2 0 86.2 -0.6
47 22.1.2022 18:00 2 0 87.4 -0.6
48 22.1.2022 17:30 2 0 87.3 -0.3
© 2011 Ministrstvo za kmetijstvo, gozdarstvo in prehrano. Vse pravice pridržane.